Glenwood, New York
Current Conditions -  °F | °C
As of 3:54 AM on Sunday 21 Dec 2014 (Local Time) from KBUF Reporting Station
Overcast Overcast  
Wind Chill: -2°   Ceiling: 2800
Heat Index: -2°   Visibility: 10mi
Dew Point: -5°   Wind: 0mph
Humidity: 78%   Direction: NA
Pressure: 30.26"   Gusts: NA
Location:  42.61°N, 78.65°W
Report Text: KBUF 210854Z 00000KT 10SM OVC028 M02/M05 A3026 RMK AO2 SLP258 T10171050 50005
Loading
Personal Weather Stations






























Interactive Weather Map New forecast layout! Learn more

10-Day Weather Forecast

Advertisements
Track Severe Weather on mobile